sensor_id;sensor_type;location;lat;lon;timestamp;P1;durP1;ratioP1;P2;durP2;ratioP2
79220;SDS011;72175;52.118;5.406;2023-08-30T00:00:19;1.80;;;0.30;;
79220;SDS011;72175;52.118;5.406;2023-08-30T00:02:48;2.83;;;0.50;;
79220;SDS011;72175;52.118;5.406;2023-08-30T00:05:15;2.45;;;0.40;;
79220;SDS011;72175;52.118;5.406;2023-08-30T00:07:42;2.47;;;0.60;;
79220;SDS011;72175;52.118;5.406;2023-08-30T00:10:08;1.90;;;0.30;;
79220;SDS011;72175;52.118;5.406;2023-08-30T00:12:36;2.33;;;0.52;;
79220;SDS011;72175;52.118;5.406;2023-08-30T00:15:03;2.05;;;0.40;;
79220;SDS011;72175;52.118;5.406;2023-08-30T00:17:30;2.47;;;0.55;;
79220;SDS011;72175;52.118;5.406;2023-08-30T00:19:56;2.22;;;0.32;;
79220;SDS011;72175;52.118;5.406;2023-08-30T00:22:22;1.63;;;0.40;;
79220;SDS011;72175;52.118;5.406;2023-08-30T00:24:49;2.25;;;0.30;;
79220;SDS011;72175;52.118;5.406;2023-08-30T00:27:16;2.90;;;0.30;;
79220;SDS011;72175;52.118;5.406;2023-08-30T00:29:42;2.10;;;0.40;;
79220;SDS011;72175;52.118;5.406;2023-08-30T00:32:09;2.80;;;0.43;;
79220;SDS011;72175;52.118;5.406;2023-08-30T00:34:36;2.00;;;0.38;;
79220;SDS011;72175;52.118;5.406;2023-08-30T00:37:02;2.55;;;0.50;;
79220;SDS011;72175;52.118;5.406;2023-08-30T00:39:29;2.97;;;0.52;;
79220;SDS011;72175;52.118;5.406;2023-08-30T00:41:55;2.30;;;0.47;;
79220;SDS011;72175;52.118;5.406;2023-08-30T00:44:22;2.55;;;0.60;;
79220;SDS011;72175;52.118;5.406;2023-08-30T00:46:48;2.97;;;0.52;;
79220;SDS011;72175;52.118;5.406;2023-08-30T00:49:15;2.35;;;0.47;;
79220;SDS011;72175;52.118;5.406;2023-08-30T00:51:42;2.38;;;0.40;;
79220;SDS011;72175;52.118;5.406;2023-08-30T00:54:08;3.00;;;0.70;;
79220;SDS011;72175;52.118;5.406;2023-08-30T00:56:35;2.42;;;0.40;;
79220;SDS011;72175;52.118;5.406;2023-08-30T00:59:01;2.70;;;0.50;;
79220;SDS011;72175;52.118;5.406;2023-08-30T01:01:28;2.58;;;0.55;;
79220;SDS011;72175;52.118;5.406;2023-08-30T01:03:55;2.40;;;0.60;;
79220;SDS011;72175;52.118;5.406;2023-08-30T01:06:21;2.40;;;0.43;;
79220;SDS011;72175;52.118;5.406;2023-08-30T01:08:48;2.80;;;0.70;;
79220;SDS011;72175;52.118;5.406;2023-08-30T01:13:58;2.55;;;0.50;;
79220;SDS011;72175;52.118;5.406;2023-08-30T01:16:30;2.17;;;0.40;;
79220;SDS011;72175;52.118;5.406;2023-08-30T01:18:58;2.00;;;0.43;;
79220;SDS011;72175;52.118;5.406;2023-08-30T01:21:40;2.58;;;0.55;;
79220;SDS011;72175;52.118;5.406;2023-08-30T01:24:21;2.38;;;0.40;;
79220;SDS011;72175;52.118;5.406;2023-08-30T01:27:25;2.33;;;0.50;;
79220;SDS011;72175;52.118;5.406;2023-08-30T01:29:46;2.53;;;0.52;;
79220;SDS011;72175;52.118;5.406;2023-08-30T01:32:15;2.47;;;0.65;;
79220;SDS011;72175;52.118;5.406;2023-08-30T01:34:42;2.50;;;0.30;;
79220;SDS011;72175;52.118;5.406;2023-08-30T01:37:11;2.22;;;0.50;;
79220;SDS011;72175;52.118;5.406;2023-08-30T01:39:40;3.10;;;0.52;;
79220;SDS011;72175;52.118;5.406;2023-08-30T01:42:08;2.38;;;0.60;;
79220;SDS011;72175;52.118;5.406;2023-08-30T01:44:40;3.38;;;0.73;;
79220;SDS011;72175;52.118;5.406;2023-08-30T01:47:11;2.25;;;0.60;;
79220;SDS011;72175;52.118;5.406;2023-08-30T01:49:38;2.78;;;0.43;;
79220;SDS011;72175;52.118;5.406;2023-08-30T01:52:07;3.20;;;0.55;;
79220;SDS011;72175;52.118;5.406;2023-08-30T01:54:35;2.72;;;0.50;;
79220;SDS011;72175;52.118;5.406;2023-08-30T01:57:03;2.42;;;0.50;;
79220;SDS011;72175;52.118;5.406;2023-08-30T01:59:30;2.22;;;0.50;;
79220;SDS011;72175;52.118;5.406;2023-08-30T02:01:57;2.30;;;0.43;;
79220;SDS011;72175;52.118;5.406;2023-08-30T02:04:23;2.22;;;0.40;;
79220;SDS011;72175;52.118;5.406;2023-08-30T02:12:04;2.40;;;0.45;;
79220;SDS011;72175;52.118;5.406;2023-08-30T02:14:35;2.17;;;0.40;;
79220;SDS011;72175;52.118;5.406;2023-08-30T02:17:04;2.55;;;0.65;;
79220;SDS011;72175;52.118;5.406;2023-08-30T02:19:32;2.22;;;0.50;;
79220;SDS011;72175;52.118;5.406;2023-08-30T02:22:00;3.00;;;0.52;;
79220;SDS011;72175;52.118;5.406;2023-08-30T02:24:26;4.40;;;0.50;;
79220;SDS011;72175;52.118;5.406;2023-08-30T02:26:53;2.47;;;0.43;;
79220;SDS011;72175;52.118;5.406;2023-08-30T02:29:19;2.63;;;0.35;;
79220;SDS011;72175;52.118;5.406;2023-08-30T02:31:46;2.30;;;0.40;;
79220;SDS011;72175;52.118;5.406;2023-08-30T02:34:12;2.80;;;0.57;;
79220;SDS011;72175;52.118;5.406;2023-08-30T02:36:39;2.10;;;0.45;;
79220;SDS011;72175;52.118;5.406;2023-08-30T02:39:05;2.42;;;0.60;;
79220;SDS011;72175;52.118;5.406;2023-08-30T02:41:32;2.88;;;0.75;;
79220;SDS011;72175;52.118;5.406;2023-08-30T02:43:58;3.03;;;0.70;;
79220;SDS011;72175;52.118;5.406;2023-08-30T02:46:25;2.70;;;0.55;;
79220;SDS011;72175;52.118;5.406;2023-08-30T02:48:51;2.80;;;0.50;;
79220;SDS011;72175;52.118;5.406;2023-08-30T02:51:18;3.00;;;0.70;;
79220;SDS011;72175;52.118;5.406;2023-08-30T02:53:44;3.30;;;0.65;;
79220;SDS011;72175;52.118;5.406;2023-08-30T02:56:11;2.92;;;0.40;;
79220;SDS011;72175;52.118;5.406;2023-08-30T02:58:37;2.85;;;0.60;;
79220;SDS011;72175;52.118;5.406;2023-08-30T03:01:04;3.35;;;0.52;;
79220;SDS011;72175;52.118;5.406;2023-08-30T03:03:31;2.05;;;0.40;;
79220;SDS011;72175;52.118;5.406;2023-08-30T03:05:58;2.67;;;0.55;;
79220;SDS011;72175;52.118;5.406;2023-08-30T03:08:24;2.20;;;0.55;;
79220;SDS011;72175;52.118;5.406;2023-08-30T03:10:51;2.90;;;0.52;;
79220;SDS011;72175;52.118;5.406;2023-08-30T03:13:17;3.20;;;0.75;;
79220;SDS011;72175;52.118;5.406;2023-08-30T03:15:44;3.08;;;0.73;;
79220;SDS011;72175;52.118;5.406;2023-08-30T03:18:10;3.15;;;0.70;;
79220;SDS011;72175;52.118;5.406;2023-08-30T03:20:37;2.90;;;0.75;;
79220;SDS011;72175;52.118;5.406;2023-08-30T03:23:04;3.10;;;0.63;;
79220;SDS011;72175;52.118;5.406;2023-08-30T03:25:30;3.00;;;0.73;;
79220;SDS011;72175;52.118;5.406;2023-08-30T03:27:57;2.45;;;0.47;;
79220;SDS011;72175;52.118;5.406;2023-08-30T03:30:26;3.30;;;0.70;;
79220;SDS011;72175;52.118;5.406;2023-08-30T03:32:53;2.97;;;0.68;;
79220;SDS011;72175;52.118;5.406;2023-08-30T03:35:19;2.67;;;0.60;;
79220;SDS011;72175;52.118;5.406;2023-08-30T03:37:47;3.20;;;0.55;;
79220;SDS011;72175;52.118;5.406;2023-08-30T03:40:14;2.63;;;0.60;;
79220;SDS011;72175;52.118;5.406;2023-08-30T03:42:40;3.13;;;0.60;;
79220;SDS011;72175;52.118;5.406;2023-08-30T03:45:07;2.58;;;0.50;;
79220;SDS011;72175;52.118;5.406;2023-08-30T03:47:34;3.13;;;0.60;;
79220;SDS011;72175;52.118;5.406;2023-08-30T03:50:01;2.85;;;0.60;;
79220;SDS011;72175;52.118;5.406;2023-08-30T03:52:28;3.72;;;0.70;;
79220;SDS011;72175;52.118;5.406;2023-08-30T03:54:54;3.22;;;0.80;;
79220;SDS011;72175;52.118;5.406;2023-08-30T03:57:21;3.05;;;0.75;;
79220;SDS011;72175;52.118;5.406;2023-08-30T03:59:47;3.60;;;1.20;;
79220;SDS011;72175;52.118;5.406;2023-08-30T04:02:14;3.35;;;0.88;;
79220;SDS011;72175;52.118;5.406;2023-08-30T04:04:40;4.00;;;0.85;;
79220;SDS011;72175;52.118;5.406;2023-08-30T04:07:07;2.90;;;0.70;;
79220;SDS011;72175;52.118;5.406;2023-08-30T04:09:33;3.13;;;0.60;;
79220;SDS011;72175;52.118;5.406;2023-08-30T04:12:00;3.13;;;0.77;;
79220;SDS011;72175;52.118;5.406;2023-08-30T04:14:26;3.53;;;0.63;;
79220;SDS011;72175;52.118;5.406;2023-08-30T04:16:53;2.88;;;0.73;;
79220;SDS011;72175;52.118;5.406;2023-08-30T04:19:19;2.88;;;0.70;;
79220;SDS011;72175;52.118;5.406;2023-08-30T04:21:46;3.03;;;0.73;;
79220;SDS011;72175;52.118;5.406;2023-08-30T04:24:12;3.30;;;0.63;;
79220;SDS011;72175;52.118;5.406;2023-08-30T04:26:40;2.67;;;0.52;;
79220;SDS011;72175;52.118;5.406;2023-08-30T04:29:08;2.92;;;0.70;;
79220;SDS011;72175;52.118;5.406;2023-08-30T04:31:34;3.40;;;0.70;;
79220;SDS011;72175;52.118;5.406;2023-08-30T04:34:01;3.58;;;0.90;;
79220;SDS011;72175;52.118;5.406;2023-08-30T04:36:28;3.25;;;0.80;;
79220;SDS011;72175;52.118;5.406;2023-08-30T04:38:55;3.08;;;0.73;;
79220;SDS011;72175;52.118;5.406;2023-08-30T04:41:28;3.58;;;0.80;;
79220;SDS011;72175;52.118;5.406;2023-08-30T04:43:55;3.38;;;0.77;;
79220;SDS011;72175;52.118;5.406;2023-08-30T04:46:21;3.58;;;0.82;;
79220;SDS011;72175;52.118;5.406;2023-08-30T04:48:48;3.08;;;0.70;;
79220;SDS011;72175;52.118;5.406;2023-08-30T04:51:14;3.40;;;1.10;;
79220;SDS011;72175;52.118;5.406;2023-08-30T04:53:41;2.50;;;0.60;;
79220;SDS011;72175;52.118;5.406;2023-08-30T04:56:10;3.90;;;0.90;;
79220;SDS011;72175;52.118;5.406;2023-08-30T04:58:38;3.22;;;0.55;;
79220;SDS011;72175;52.118;5.406;2023-08-30T05:01:05;2.95;;;0.63;;
79220;SDS011;72175;52.118;5.406;2023-08-30T05:03:33;3.25;;;0.80;;
79220;SDS011;72175;52.118;5.406;2023-08-30T05:05:59;3.20;;;1.48;;
79220;SDS011;72175;52.118;5.406;2023-08-30T05:08:26;2.90;;;0.80;;
79220;SDS011;72175;52.118;5.406;2023-08-30T05:10:55;3.28;;;0.82;;
79220;SDS011;72175;52.118;5.406;2023-08-30T05:13:22;3.50;;;0.73;;
79220;SDS011;72175;52.118;5.406;2023-08-30T05:15:49;3.38;;;0.60;;
79220;SDS011;72175;52.118;5.406;2023-08-30T05:18:15;3.67;;;0.80;;
79220;SDS011;72175;52.118;5.406;2023-08-30T05:20:42;3.67;;;0.95;;
79220;SDS011;72175;52.118;5.406;2023-08-30T05:23:08;2.95;;;0.70;;
79220;SDS011;72175;52.118;5.406;2023-08-30T05:25:35;3.70;;;1.13;;
79220;SDS011;72175;52.118;5.406;2023-08-30T05:28:01;3.25;;;0.70;;
79220;SDS011;72175;52.118;5.406;2023-08-30T05:30:28;3.53;;;0.90;;
79220;SDS011;72175;52.118;5.406;2023-08-30T05:32:55;3.38;;;0.70;;
79220;SDS011;72175;52.118;5.406;2023-08-30T05:35:21;3.38;;;0.82;;
79220;SDS011;72175;52.118;5.406;2023-08-30T05:37:48;2.72;;;0.60;;
79220;SDS011;72175;52.118;5.406;2023-08-30T05:40:14;3.50;;;0.70;;
79220;SDS011;72175;52.118;5.406;2023-08-30T05:42:43;3.80;;;0.90;;
79220;SDS011;72175;52.118;5.406;2023-08-30T05:45:11;3.13;;;0.93;;
79220;SDS011;72175;52.118;5.406;2023-08-30T05:47:39;4.00;;;0.93;;
79220;SDS011;72175;52.118;5.406;2023-08-30T05:50:06;3.88;;;0.80;;
79220;SDS011;72175;52.118;5.406;2023-08-30T05:52:33;3.50;;;1.13;;
79220;SDS011;72175;52.118;5.406;2023-08-30T05:54:59;3.35;;;0.90;;
79220;SDS011;72175;52.118;5.406;2023-08-30T05:57:26;3.10;;;0.73;;
79220;SDS011;72175;52.118;5.406;2023-08-30T05:59:55;3.10;;;0.98;;
79220;SDS011;72175;52.118;5.406;2023-08-30T06:02:21;4.65;;;1.23;;
79220;SDS011;72175;52.118;5.406;2023-08-30T06:04:48;4.32;;;0.70;;
79220;SDS011;72175;52.118;5.406;2023-08-30T06:07:14;3.15;;;0.75;;
79220;SDS011;72175;52.118;5.406;2023-08-30T06:09:41;3.53;;;0.85;;
79220;SDS011;72175;52.118;5.406;2023-08-30T06:12:08;3.83;;;0.95;;
79220;SDS011;72175;52.118;5.406;2023-08-30T06:14:35;4.22;;;0.93;;
79220;SDS011;72175;52.118;5.406;2023-08-30T06:17:01;3.30;;;0.75;;
79220;SDS011;72175;52.118;5.406;2023-08-30T06:19:28;3.13;;;0.80;;
79220;SDS011;72175;52.118;5.406;2023-08-30T06:21:55;4.40;;;1.02;;
79220;SDS011;72175;52.118;5.406;2023-08-30T06:24:21;4.10;;;0.80;;
79220;SDS011;72175;52.118;5.406;2023-08-30T06:26:48;3.17;;;0.80;;
79220;SDS011;72175;52.118;5.406;2023-08-30T06:29:15;3.25;;;0.93;;
79220;SDS011;72175;52.118;5.406;2023-08-30T06:31:42;3.42;;;0.98;;
79220;SDS011;72175;52.118;5.406;2023-08-30T06:34:08;3.47;;;1.15;;
79220;SDS011;72175;52.118;5.406;2023-08-30T06:36:35;3.67;;;0.93;;
79220;SDS011;72175;52.118;5.406;2023-08-30T06:39:01;3.60;;;0.73;;
79220;SDS011;72175;52.118;5.406;2023-08-30T06:41:28;3.65;;;0.82;;
79220;SDS011;72175;52.118;5.406;2023-08-30T06:43:55;4.75;;;1.08;;
79220;SDS011;72175;52.118;5.406;2023-08-30T06:46:23;4.30;;;0.90;;
79220;SDS011;72175;52.118;5.406;2023-08-30T06:48:49;3.50;;;0.93;;
79220;SDS011;72175;52.118;5.406;2023-08-30T06:51:16;4.30;;;1.52;;
79220;SDS011;72175;52.118;5.406;2023-08-30T06:53:42;21.58;;;2.83;;
79220;SDS011;72175;52.118;5.406;2023-08-30T06:56:09;12.10;;;1.73;;
79220;SDS011;72175;52.118;5.406;2023-08-30T06:58:36;8.25;;;1.55;;
79220;SDS011;72175;52.118;5.406;2023-08-30T07:01:02;9.32;;;1.80;;
79220;SDS011;72175;52.118;5.406;2023-08-30T07:03:29;9.98;;;1.80;;
79220;SDS011;72175;52.118;5.406;2023-08-30T07:05:56;14.55;;;2.72;;
79220;SDS011;72175;52.118;5.406;2023-08-30T07:08:22;18.10;;;2.63;;
79220;SDS011;72175;52.118;5.406;2023-08-30T07:10:49;13.45;;;2.47;;
79220;SDS011;72175;52.118;5.406;2023-08-30T07:13:17;13.38;;;2.08;;
79220;SDS011;72175;52.118;5.406;2023-08-30T07:15:44;8.60;;;1.60;;
79220;SDS011;72175;52.118;5.406;2023-08-30T07:18:10;6.88;;;1.67;;
79220;SDS011;72175;52.118;5.406;2023-08-30T07:20:38;8.23;;;1.50;;
79220;SDS011;72175;52.118;5.406;2023-08-30T07:23:05;7.30;;;1.85;;
79220;SDS011;72175;52.118;5.406;2023-08-30T07:25:36;8.98;;;1.63;;
79220;SDS011;72175;52.118;5.406;2023-08-30T07:28:03;13.55;;;1.60;;
79220;SDS011;72175;52.118;5.406;2023-08-30T07:30:31;5.50;;;1.00;;
79220;SDS011;72175;52.118;5.406;2023-08-30T07:32:57;5.78;;;1.33;;
79220;SDS011;72175;52.118;5.406;2023-08-30T07:35:24;4.88;;;1.40;;
79220;SDS011;72175;52.118;5.406;2023-08-30T07:37:51;7.05;;;1.23;;
79220;SDS011;72175;52.118;5.406;2023-08-30T07:40:17;4.65;;;1.20;;
79220;SDS011;72175;52.118;5.406;2023-08-30T07:42:44;7.03;;;1.38;;
79220;SDS011;72175;52.118;5.406;2023-08-30T07:45:10;5.95;;;1.20;;
79220;SDS011;72175;52.118;5.406;2023-08-30T07:47:37;5.10;;;0.93;;
79220;SDS011;72175;52.118;5.406;2023-08-30T07:50:04;4.88;;;1.00;;
79220;SDS011;72175;52.118;5.406;2023-08-30T07:52:32;4.53;;;1.00;;
79220;SDS011;72175;52.118;5.406;2023-08-30T07:55:10;5.93;;;0.98;;
79220;SDS011;72175;52.118;5.406;2023-08-30T07:57:37;4.10;;;0.98;;
79220;SDS011;72175;52.118;5.406;2023-08-30T08:00:04;4.80;;;0.80;;
79220;SDS011;72175;52.118;5.406;2023-08-30T08:02:31;4.40;;;0.75;;
79220;SDS011;72175;52.118;5.406;2023-08-30T08:04:58;4.45;;;0.82;;
79220;SDS011;72175;52.118;5.406;2023-08-30T08:07:25;4.78;;;1.10;;
79220;SDS011;72175;52.118;5.406;2023-08-30T08:09:54;3.55;;;0.82;;
79220;SDS011;72175;52.118;5.406;2023-08-30T08:12:21;5.43;;;1.00;;
79220;SDS011;72175;52.118;5.406;2023-08-30T08:14:48;5.35;;;1.23;;
79220;SDS011;72175;52.118;5.406;2023-08-30T08:17:14;3.85;;;0.95;;
79220;SDS011;72175;52.118;5.406;2023-08-30T08:19:41;4.10;;;1.00;;
79220;SDS011;72175;52.118;5.406;2023-08-30T08:22:09;4.32;;;0.90;;
79220;SDS011;72175;52.118;5.406;2023-08-30T08:24:35;3.40;;;0.98;;
79220;SDS011;72175;52.118;5.406;2023-08-30T08:27:02;5.68;;;1.13;;
79220;SDS011;72175;52.118;5.406;2023-08-30T08:29:29;4.43;;;0.90;;
79220;SDS011;72175;52.118;5.406;2023-08-30T08:31:55;3.40;;;0.80;;
79220;SDS011;72175;52.118;5.406;2023-08-30T08:34:22;3.63;;;0.80;;
79220;SDS011;72175;52.118;5.406;2023-08-30T08:36:51;5.30;;;0.82;;
79220;SDS011;72175;52.118;5.406;2023-08-30T08:39:17;4.15;;;0.93;;
79220;SDS011;72175;52.118;5.406;2023-08-30T08:41:44;5.35;;;1.20;;
79220;SDS011;72175;52.118;5.406;2023-08-30T08:44:12;5.13;;;0.90;;
79220;SDS011;72175;52.118;5.406;2023-08-30T08:46:39;3.75;;;0.90;;
79220;SDS011;72175;52.118;5.406;2023-08-30T08:49:15;3.97;;;1.05;;
79220;SDS011;72175;52.118;5.406;2023-08-30T08:51:42;3.38;;;0.80;;
79220;SDS011;72175;52.118;5.406;2023-08-30T08:54:10;4.70;;;0.82;;
79220;SDS011;72175;52.118;5.406;2023-08-30T08:56:39;4.80;;;1.02;;
79220;SDS011;72175;52.118;5.406;2023-08-30T08:59:06;5.78;;;0.93;;
79220;SDS011;72175;52.118;5.406;2023-08-30T09:01:35;4.55;;;0.90;;
79220;SDS011;72175;52.118;5.406;2023-08-30T09:04:06;4.70;;;1.00;;
79220;SDS011;72175;52.118;5.406;2023-08-30T09:06:38;6.05;;;1.00;;
79220;SDS011;72175;52.118;5.406;2023-08-30T09:09:13;4.45;;;1.10;;
79220;SDS011;72175;52.118;5.406;2023-08-30T09:11:40;5.93;;;1.00;;
79220;SDS011;72175;52.118;5.406;2023-08-30T09:14:09;5.30;;;1.15;;
79220;SDS011;72175;52.118;5.406;2023-08-30T09:16:36;5.03;;;0.95;;
79220;SDS011;72175;52.118;5.406;2023-08-30T09:19:03;4.10;;;0.63;;
79220;SDS011;72175;52.118;5.406;2023-08-30T09:21:34;5.40;;;0.95;;
79220;SDS011;72175;52.118;5.406;2023-08-30T09:24:01;4.05;;;0.80;;
79220;SDS011;72175;52.118;5.406;2023-08-30T09:26:30;7.38;;;1.25;;
79220;SDS011;72175;52.118;5.406;2023-08-30T09:29:01;4.32;;;1.02;;
79220;SDS011;72175;52.118;5.406;2023-08-30T09:34:06;4.47;;;0.75;;
79220;SDS011;72175;52.118;5.406;2023-08-30T09:36:36;5.53;;;0.93;;
79220;SDS011;72175;52.118;5.406;2023-08-30T09:39:03;3.72;;;0.90;;
79220;SDS011;72175;52.118;5.406;2023-08-30T09:41:34;5.00;;;0.75;;
79220;SDS011;72175;52.118;5.406;2023-08-30T09:44:06;5.95;;;0.80;;
79220;SDS011;72175;52.118;5.406;2023-08-30T09:46:41;4.57;;;1.02;;
79220;SDS011;72175;52.118;5.406;2023-08-30T09:49:21;5.07;;;0.73;;
79220;SDS011;72175;52.118;5.406;2023-08-30T09:51:50;4.53;;;0.65;;
79220;SDS011;72175;52.118;5.406;2023-08-30T09:54:22;4.75;;;0.85;;
79220;SDS011;72175;52.118;5.406;2023-08-30T09:57:05;4.35;;;0.90;;
79220;SDS011;72175;52.118;5.406;2023-08-30T09:59:32;6.18;;;0.93;;
79220;SDS011;72175;52.118;5.406;2023-08-30T10:01:59;7.32;;;0.80;;
79220;SDS011;72175;52.118;5.406;2023-08-30T10:04:29;4.47;;;0.70;;
79220;SDS011;72175;52.118;5.406;2023-08-30T10:06:58;6.30;;;1.05;;
79220;SDS011;72175;52.118;5.406;2023-08-30T10:09:28;5.30;;;0.80;;
79220;SDS011;72175;52.118;5.406;2023-08-30T10:11:57;6.57;;;0.80;;
79220;SDS011;72175;52.118;5.406;2023-08-30T10:14:24;4.80;;;0.90;;
79220;SDS011;72175;52.118;5.406;2023-08-30T10:16:51;3.63;;;0.82;;
79220;SDS011;72175;52.118;5.406;2023-08-30T10:19:28;5.63;;;0.77;;
79220;SDS011;72175;52.118;5.406;2023-08-30T10:24:48;8.48;;;1.33;;
79220;SDS011;72175;52.118;5.406;2023-08-30T10:27:37;14.75;;;1.17;;
79220;SDS011;72175;52.118;5.406;2023-08-30T10:30:07;16.08;;;1.65;;
79220;SDS011;72175;52.118;5.406;2023-08-30T10:32:40;11.18;;;1.67;;
79220;SDS011;72175;52.118;5.406;2023-08-30T10:35:10;7.97;;;0.70;;
79220;SDS011;72175;52.118;5.406;2023-08-30T10:37:41;7.90;;;0.93;;
79220;SDS011;72175;52.118;5.406;2023-08-30T10:40:08;5.30;;;0.73;;
79220;SDS011;72175;52.118;5.406;2023-08-30T10:42:35;6.78;;;0.63;;
79220;SDS011;72175;52.118;5.406;2023-08-30T10:45:05;4.40;;;0.80;;
79220;SDS011;72175;52.118;5.406;2023-08-30T10:47:37;5.15;;;0.73;;
79220;SDS011;72175;52.118;5.406;2023-08-30T10:50:14;4.45;;;0.70;;
79220;SDS011;72175;52.118;5.406;2023-08-30T10:52:41;5.35;;;0.75;;
79220;SDS011;72175;52.118;5.406;2023-08-30T10:55:12;6.72;;;0.57;;
79220;SDS011;72175;52.118;5.406;2023-08-30T10:57:41;4.13;;;1.30;;
79220;SDS011;72175;52.118;5.406;2023-08-30T11:00:22;3.97;;;0.80;;
79220;SDS011;72175;52.118;5.406;2023-08-30T11:02:50;2.97;;;0.95;;
79220;SDS011;72175;52.118;5.406;2023-08-30T11:05:18;3.00;;;0.70;;
79220;SDS011;72175;52.118;5.406;2023-08-30T11:07:47;3.50;;;0.95;;
79220;SDS011;72175;52.118;5.406;2023-08-30T11:10:15;2.92;;;0.70;;
79220;SDS011;72175;52.118;5.406;2023-08-30T11:12:43;4.07;;;0.88;;
79220;SDS011;72175;52.118;5.406;2023-08-30T11:15:11;3.55;;;0.73;;
79220;SDS011;72175;52.118;5.406;2023-08-30T11:17:42;3.92;;;0.70;;
79220;SDS011;72175;52.118;5.406;2023-08-30T11:20:10;2.85;;;0.50;;
79220;SDS011;72175;52.118;5.406;2023-08-30T11:22:43;7.43;;;0.93;;
79220;SDS011;72175;52.118;5.406;2023-08-30T11:25:12;4.35;;;0.70;;
79220;SDS011;72175;52.118;5.406;2023-08-30T11:27:41;3.15;;;0.60;;
79220;SDS011;72175;52.118;5.406;2023-08-30T11:30:09;3.95;;;0.85;;
79220;SDS011;72175;52.118;5.406;2023-08-30T11:32:39;3.25;;;0.60;;
79220;SDS011;72175;52.118;5.406;2023-08-30T11:35:07;4.75;;;0.70;;
79220;SDS011;72175;52.118;5.406;2023-08-30T11:37:34;2.75;;;0.65;;
79220;SDS011;72175;52.118;5.406;2023-08-30T11:40:02;4.22;;;0.70;;
79220;SDS011;72175;52.118;5.406;2023-08-30T11:42:30;3.53;;;0.82;;
79220;SDS011;72175;52.118;5.406;2023-08-30T11:45:00;3.70;;;0.52;;
79220;SDS011;72175;52.118;5.406;2023-08-30T11:47:27;5.95;;;0.60;;
79220;SDS011;72175;52.118;5.406;2023-08-30T11:49:55;7.50;;;1.20;;
79220;SDS011;72175;52.118;5.406;2023-08-30T11:52:24;3.63;;;1.02;;
79220;SDS011;72175;52.118;5.406;2023-08-30T11:54:52;4.75;;;0.65;;
79220;SDS011;72175;52.118;5.406;2023-08-30T11:57:19;3.50;;;0.60;;
79220;SDS011;72175;52.118;5.406;2023-08-30T11:59:47;4.43;;;0.95;;
79220;SDS011;72175;52.118;5.406;2023-08-30T12:02:15;2.95;;;0.52;;
79220;SDS011;72175;52.118;5.406;2023-08-30T12:04:43;3.90;;;0.60;;
79220;SDS011;72175;52.118;5.406;2023-08-30T12:07:24;5.30;;;0.70;;
79220;SDS011;72175;52.118;5.406;2023-08-30T12:09:52;3.53;;;0.60;;
79220;SDS011;72175;52.118;5.406;2023-08-30T12:12:30;5.78;;;1.00;;
79220;SDS011;72175;52.118;5.406;2023-08-30T12:14:57;3.78;;;0.55;;
79220;SDS011;72175;52.118;5.406;2023-08-30T12:17:24;6.65;;;0.90;;
79220;SDS011;72175;52.118;5.406;2023-08-30T12:19:58;3.65;;;0.75;;
79220;SDS011;72175;52.118;5.406;2023-08-30T12:25:22;6.85;;;0.70;;
79220;SDS011;72175;52.118;5.406;2023-08-30T12:27:53;4.82;;;0.68;;
79220;SDS011;72175;52.118;5.406;2023-08-30T12:30:19;4.07;;;1.13;;
79220;SDS011;72175;52.118;5.406;2023-08-30T12:32:47;3.72;;;0.60;;
79220;SDS011;72175;52.118;5.406;2023-08-30T12:35:15;3.13;;;0.52;;
79220;SDS011;72175;52.118;5.406;2023-08-30T12:37:41;6.40;;;0.95;;
79220;SDS011;72175;52.118;5.406;2023-08-30T12:40:08;4.97;;;0.75;;
79220;SDS011;72175;52.118;5.406;2023-08-30T12:42:36;2.35;;;0.43;;
79220;SDS011;72175;52.118;5.406;2023-08-30T12:45:03;3.33;;;0.40;;
79220;SDS011;72175;52.118;5.406;2023-08-30T12:47:30;4.88;;;0.85;;
79220;SDS011;72175;52.118;5.406;2023-08-30T12:49:57;7.85;;;0.60;;
79220;SDS011;72175;52.118;5.406;2023-08-30T12:52:24;3.38;;;0.50;;
79220;SDS011;72175;52.118;5.406;2023-08-30T12:54:51;3.83;;;0.60;;
79220;SDS011;72175;52.118;5.406;2023-08-30T12:57:20;3.85;;;0.80;;
79220;SDS011;72175;52.118;5.406;2023-08-30T12:59:46;5.18;;;0.63;;
79220;SDS011;72175;52.118;5.406;2023-08-30T13:02:13;5.38;;;0.63;;
79220;SDS011;72175;52.118;5.406;2023-08-30T13:04:39;3.83;;;0.68;;
79220;SDS011;72175;52.118;5.406;2023-08-30T13:07:06;3.85;;;0.55;;
79220;SDS011;72175;52.118;5.406;2023-08-30T13:09:33;3.47;;;0.60;;
79220;SDS011;72175;52.118;5.406;2023-08-30T13:11:59;4.70;;;0.52;;
79220;SDS011;72175;52.118;5.406;2023-08-30T13:14:26;3.13;;;0.60;;
79220;SDS011;72175;52.118;5.406;2023-08-30T13:16:52;3.03;;;0.65;;
79220;SDS011;72175;52.118;5.406;2023-08-30T13:19:19;3.67;;;0.68;;
79220;SDS011;72175;52.118;5.406;2023-08-30T13:21:45;3.15;;;0.75;;
79220;SDS011;72175;52.118;5.406;2023-08-30T13:24:12;2.95;;;0.57;;
79220;SDS011;72175;52.118;5.406;2023-08-30T13:26:39;5.28;;;0.60;;
79220;SDS011;72175;52.118;5.406;2023-08-30T13:29:05;4.93;;;0.50;;
79220;SDS011;72175;52.118;5.406;2023-08-30T13:31:32;4.50;;;0.60;;
79220;SDS011;72175;52.118;5.406;2023-08-30T13:33:58;3.83;;;0.60;;
79220;SDS011;72175;52.118;5.406;2023-08-30T13:36:25;3.55;;;0.52;;
79220;SDS011;72175;52.118;5.406;2023-08-30T13:38:52;3.38;;;1.00;;
79220;SDS011;72175;52.118;5.406;2023-08-30T13:41:19;3.80;;;0.75;;
79220;SDS011;72175;52.118;5.406;2023-08-30T13:43:45;5.35;;;0.75;;
79220;SDS011;72175;52.118;5.406;2023-08-30T13:46:12;4.15;;;1.02;;
79220;SDS011;72175;52.118;5.406;2023-08-30T13:48:39;4.93;;;0.70;;
79220;SDS011;72175;52.118;5.406;2023-08-30T13:51:05;5.57;;;0.50;;
79220;SDS011;72175;52.118;5.406;2023-08-30T13:53:32;5.43;;;0.88;;
79220;SDS011;72175;52.118;5.406;2023-08-30T13:56:00;3.72;;;0.63;;
79220;SDS011;72175;52.118;5.406;2023-08-30T13:58:26;8.13;;;1.08;;
79220;SDS011;72175;52.118;5.406;2023-08-30T14:00:53;5.53;;;0.60;;
79220;SDS011;72175;52.118;5.406;2023-08-30T14:03:20;4.57;;;0.73;;
79220;SDS011;72175;52.118;5.406;2023-08-30T14:05:46;5.47;;;0.73;;
79220;SDS011;72175;52.118;5.406;2023-08-30T14:08:13;3.55;;;0.60;;
79220;SDS011;72175;52.118;5.406;2023-08-30T14:10:39;5.15;;;0.93;;
79220;SDS011;72175;52.118;5.406;2023-08-30T14:13:06;3.60;;;0.73;;
79220;SDS011;72175;52.118;5.406;2023-08-30T14:15:38;2.78;;;0.52;;
79220;SDS011;72175;52.118;5.406;2023-08-30T14:18:04;3.67;;;0.60;;
79220;SDS011;72175;52.118;5.406;2023-08-30T14:20:31;3.35;;;0.60;;
79220;SDS011;72175;52.118;5.406;2023-08-30T14:22:58;4.55;;;0.55;;
79220;SDS011;72175;52.118;5.406;2023-08-30T14:25:24;4.15;;;0.60;;
79220;SDS011;72175;52.118;5.406;2023-08-30T14:27:51;4.30;;;0.95;;
79220;SDS011;72175;52.118;5.406;2023-08-30T14:30:18;5.22;;;0.63;;
79220;SDS011;72175;52.118;5.406;2023-08-30T14:32:45;5.13;;;0.75;;
79220;SDS011;72175;52.118;5.406;2023-08-30T14:35:12;5.95;;;0.52;;
79220;SDS011;72175;52.118;5.406;2023-08-30T14:37:39;3.90;;;0.70;;
79220;SDS011;72175;52.118;5.406;2023-08-30T14:40:07;4.43;;;0.63;;
79220;SDS011;72175;52.118;5.406;2023-08-30T14:42:34;3.00;;;0.50;;
79220;SDS011;72175;52.118;5.406;2023-08-30T14:45:01;3.25;;;0.85;;
79220;SDS011;72175;52.118;5.406;2023-08-30T14:47:34;3.28;;;0.73;;
79220;SDS011;72175;52.118;5.406;2023-08-30T14:50:01;3.13;;;0.40;;
79220;SDS011;72175;52.118;5.406;2023-08-30T14:52:29;3.30;;;0.40;;
79220;SDS011;72175;52.118;5.406;2023-08-30T14:54:59;3.95;;;0.80;;
79220;SDS011;72175;52.118;5.406;2023-08-30T14:57:25;8.80;;;0.73;;
79220;SDS011;72175;52.118;5.406;2023-08-30T14:59:52;2.90;;;0.40;;
79220;SDS011;72175;52.118;5.406;2023-08-30T15:02:19;5.18;;;0.70;;
79220;SDS011;72175;52.118;5.406;2023-08-30T15:04:45;2.85;;;0.60;;
79220;SDS011;72175;52.118;5.406;2023-08-30T15:07:12;3.97;;;0.60;;